METAR Data
IDs: Format: Raw Decoded Include TAF

Data at: 1055 UTC 18 Jan 2022

KGNB 181035Z AUTO 00000KT 10SM CLR M16/M18 A3002 RMK AO2 T11651184
KGNB 181015Z AUTO 00000KT 10SM CLR M15/M17 A3002 RMK AO2 T11481172
KGNB 180955Z AUTO 00000KT 10SM CLR M16/M18 A3003 RMK AO2 T11591179
KGNB 180935Z AUTO 00000KT 10SM CLR M16/M18 A3003 RMK AO2 T11581181
KGNB 180915Z AUTO 00000KT 10SM CLR M15/M17 A3003 RMK AO2 T11531174
KGNB 180855Z AUTO 00000KT 10SM CLR M15/M18 A3003 RMK AO2 T11551177
KGNB 180835Z AUTO 05003KT 10SM CLR M16/M18 A3003 RMK AO2 T11571178
KGNB 180815Z AUTO 00000KT 10SM CLR M14/M16 A3003 RMK AO2 T11421163
KGNB 180755Z AUTO 00000KT 10SM CLR M15/M17 A3004 RMK AO2 T11521172
KGNB 180735Z AUTO 00000KT 10SM CLR M14/M16 A3004 RMK AO2 T11401162
KGNB 180715Z AUTO 00000KT 10SM CLR M15/M17 A3005 RMK AO2 T11481170
KGNB 180655Z AUTO 00000KT 10SM CLR M15/M17 A3006 RMK AO2 T11461170 410951214
KGNB 180635Z AUTO 00000KT 10SM CLR M14/M17 A3007 RMK AO2 T11441169
KGNB 180615Z AUTO 00000KT 10SM SCT085 M14/M16 A3007 RMK AO2 T11361165
KGNB 180555Z AUTO 00000KT 10SM BKN085 M13/M16 A3007 RMK AO2 T11321161 11110 21145
KGNB 180535Z AUTO 00000KT 10SM OVC085 M13/M16 A3007 RMK AO2 T11341161
KGNB 180515Z AUTO 00000KT 10SM OVC085 M13/M16 A3008 RMK AO2 T11271157
KGNB 180455Z AUTO 00000KT 10SM OVC085 M13/M16 A3008 RMK AO2 T11261158
KGNB 180435Z AUTO 00000KT 10SM OVC085 M13/M16 A3009 RMK AO2 T11281163
KGNB 180415Z AUTO 00000KT 10SM OVC085 M13/M16 A3009 RMK AO2 T11291162
KGNB 180355Z AUTO 00000KT 10SM SCT085 M14/M17 A3009 RMK AO2 T11431170
KGNB 180335Z AUTO 00000KT 10SM CLR M14/M17 A3009 RMK AO2 T11391172
KGNB 180315Z AUTO 00000KT 10SM CLR M14/M17 A3009 RMK AO2 T11391173
KGNB 180255Z AUTO 00000KT 10SM CLR M13/M16 A3009 RMK AO2 T11291164
KGNB 180235Z AUTO 00000KT 10SM CLR M12/M16 A3009 RMK AO2 T11211160
KGNB 180215Z AUTO 00000KT 10SM CLR M12/M16 A3009 RMK AO2 T11231164
KGNB 180155Z AUTO 00000KT 10SM CLR M12/M16 A3009 RMK AO2 T11161160
KGNB 180135Z AUTO 00000KT 10SM CLR M12/M17 A3008 RMK AO2 T11241168
KGNB 180115Z AUTO 00000KT 10SM CLR M11/M16 A3007 RMK AO2 T11141159
KGNB 180055Z AUTO 04004KT 10SM CLR M13/M17 A3007 RMK AO2 T11291167
KGNB 180035Z AUTO 00000KT 10SM CLR M12/M17 A3007 RMK AO2 T11211166
KGNB 180015Z AUTO 00000KT 10SM CLR M12/M16 A3007 RMK AO2 T11201164
KGNB 172355Z AUTO 00000KT 10SM CLR M11/M16 A3007 RMK AO2 T11131158 11095 21156
KGNB 172335Z AUTO 00000KT 10SM CLR M10/M15 A3008 RMK AO2 T10971149
KGNB 172315Z AUTO 00000KT 10SM CLR M10/M15 A3008 RMK AO2 T11051152
KGNB 172255Z AUTO 00000KT 10SM CLR M10/M15 A3008 RMK AO2 T11001153
KGNB 172235Z AUTO 00000KT 10SM CLR M10/M15 A3008 RMK AO2 T11011153
KGNB 172215Z AUTO 00000KT 10SM CLR M10/M15 A3010 RMK AO2 T11011152
KGNB 172155Z AUTO 00000KT 10SM CLR M09/M15 A3010 RMK AO2 T10951152
KGNB 172135Z AUTO 00000KT 10SM CLR M10/M15 A3011 RMK AO2 T10961155
KGNB 172115Z AUTO 00000KT 10SM CLR M10/M15 A3011 RMK AO2 T10971150
KGNB 172055Z AUTO 00000KT 10SM CLR M10/M15 A3011 RMK AO2 T11001155
KGNB 172035Z AUTO 00000KT 10SM CLR M10/M15 A3011 RMK AO2 T11001154
KGNB 172015Z AUTO 00000KT 10SM CLR M11/M16 A3012 RMK AO2 T11091159
KGNB 171955Z AUTO 00000KT 10SM CLR M11/M16 A3013 RMK AO2 T11151165
KGNB 171935Z AUTO 00000KT 10SM CLR M12/M17 A3016 RMK AO2 T11201170
KGNB 171915Z AUTO 00000KT 10SM CLR M12/M17 A3016 RMK AO2 T11251168
KGNB 171855Z AUTO 00000KT 10SM CLR M13/M17 A3018 RMK AO2 T11301171
KGNB 171835Z AUTO 00000KT 10SM CLR M13/M17 A3018 RMK AO2 T11311175
KGNB 171815Z AUTO 00000KT 10SM CLR M14/M18 A3021 RMK AO2 T11401182
KGNB 171755Z AUTO 00000KT 10SM CLR M16/M19 A3021 RMK AO2 T11561189 11156 21214
KGNB 171735Z AUTO 00000KT 10SM CLR M17/M20 A3022 RMK AO2 T11711198
KGNB 171715Z AUTO 00000KT 10SM CLR M18/M20 A3023 RMK AO2 T11771203
KGNB 171655Z AUTO 00000KT 10SM CLR M17/M20 A3023 RMK AO2 T11751205
KGNB 171635Z AUTO 00000KT 10SM CLR M18/M20 A3023 RMK AO2 T11831205
KGNB 171615Z AUTO 00000KT 10SM CLR M19/M21 A3023 RMK AO2 T11911212
KGNB 171555Z AUTO 00000KT 10SM CLR M21/M23 A3022 RMK AO2 T12061227
KGNB 171535Z AUTO 04006KT 10SM CLR M21/M23 A3022 RMK AO2 T12121233
KGNB 171515Z AUTO 00000KT 10SM CLR M19/M21 A3022 RMK AO2 T11931208
KGNB 171455Z AUTO 00000KT 10SM CLR M19/M21 A3022 RMK AO2 T11921208
KGNB 171435Z AUTO 00000KT 10SM CLR M20/M22 A3022 RMK AO2 T12051224
KGNB 171415Z AUTO 00000KT 10SM CLR M20/M22 A3020 RMK AO2 T12031223
KGNB 171355Z AUTO 09003KT 10SM CLR M20/M22 A3021 RMK AO2 T11981219
KGNB 171335Z AUTO 13003KT 10SM CLR M20/M22 A3020 RMK AO2 T12031223
KGNB 171315Z AUTO 00000KT 10SM CLR M19/M21 A3020 RMK AO2 T11891211
KGNB 171255Z AUTO 00000KT 10SM CLR M19/M21 A3021 RMK AO2 T11861207
KGNB 171235Z AUTO 13003KT 10SM CLR M19/M21 A3021 RMK AO2 T11901210
KGNB 171215Z AUTO 00000KT 10SM CLR M19/M21 A3020 RMK AO2 T11891208
KGNB 171155Z AUTO 00000KT 10SM CLR M19/M21 A3020 RMK AO2 T11881209 11147 21205
KGNB 171135Z AUTO 05005KT 10SM CLR M19/M21 A3020 RMK AO2 T11891209
KGNB 171115Z AUTO 05003KT 10SM CLR M20/M22 A3021 RMK AO2 T12051225
KGNB 171055Z AUTO 00000KT 10SM CLR M18/M20 A3022 RMK AO2 T11801203
KGNB 171035Z AUTO 00000KT 10SM CLR M18/M20 A3022 RMK AO2 T11791199
KGNB 171015Z AUTO 00000KT 10SM CLR M19/M21 A3023 RMK AO2 T11871208
KGNB 170955Z AUTO 00000KT 10SM CLR M16/M19 A3023 RMK AO2 T11651191
KGNB 170935Z AUTO 00000KT 10SM CLR M18/M20 A3024 RMK AO2 T11821204
KGNB 170915Z AUTO 00000KT 10SM CLR M17/M19 A3024 RMK AO2 T11731193
KGNB 170855Z AUTO 00000KT 10SM CLR M18/M20 A3024 RMK AO2 T11851203
KGNB 170835Z AUTO 00000KT 10SM CLR M17/M19 A3024 RMK AO2 T11691189
KGNB 170815Z AUTO 00000KT 10SM CLR M17/M19 A3024 RMK AO2 T11701192
KGNB 170755Z AUTO 00000KT 10SM CLR M17/M19 A3025 RMK AO2 T11681190
KGNB 170735Z AUTO 00000KT 10SM CLR M16/M19 A3025 RMK AO2 T11621188
KGNB 170715Z AUTO 00000KT 10SM CLR M16/M19 A3025 RMK AO2 T11631191
KGNB 170655Z AUTO 00000KT 10SM CLR M17/M19 A3025 RMK AO2 T11661193 411001216
KGNB 170635Z AUTO 00000KT 10SM CLR M16/M18 A3025 RMK AO2 T11601183
KGNB 170615Z AUTO 00000KT 10SM CLR M17/M19 A3025 RMK AO2 T11671194
KGNB 170555Z AUTO 00000KT 10SM CLR M16/M18 A3025 RMK AO2 T11581180 11105 21167
KGNB 170535Z AUTO 00000KT 10SM CLR M16/M19 A3025 RMK AO2 T11651193
KGNB 170515Z AUTO 00000KT 10SM CLR M15/M17 A3025 RMK AO2 T11481174
KGNB 170455Z AUTO 00000KT 10SM CLR M15/M17 A3025 RMK AO2 T11481172
KGNB 170435Z AUTO 00000KT 10SM CLR M16/M19 A3025 RMK AO2 T11651192
KGNB 170415Z AUTO 13003KT 10SM CLR M14/M17 A3025 RMK AO2 T11441172
KGNB 170355Z AUTO 00000KT 10SM CLR M15/M18 A3025 RMK AO2 T11501177
KGNB 170335Z AUTO 00000KT 10SM CLR M15/M17 A3024 RMK AO2 T11461174
KGNB 170315Z AUTO 00000KT 10SM CLR M14/M17 A3024 RMK AO2 T11371167
KGNB 170255Z AUTO 06003KT 10SM CLR M15/M19 A3025 RMK AO2 T11551187
KGNB 170235Z AUTO 00000KT 10SM CLR M12/M16 A3025 RMK AO2 T11241157
KGNB 170215Z AUTO 00000KT 10SM CLR M13/M16 A3025 RMK AO2 T11291164
KGNB 170155Z AUTO 00000KT 10SM CLR M13/M17 A3025 RMK AO2 T11291166
KGNB 170135Z AUTO 00000KT 10SM CLR M12/M16 A3023 RMK AO2 T11181160
KGNB 170115Z AUTO 00000KT 10SM CLR M12/M16 A3023 RMK AO2 T11201161
KGNB 170055Z AUTO 00000KT 10SM CLR M13/M17 A3023 RMK AO2 T11321170
KGNB 170035Z AUTO 00000KT 10SM CLR M12/M16 A3022 RMK AO2 T11221164
KGNB 170015Z AUTO 00000KT 10SM CLR M11/M16 A3022 RMK AO2 T11111156
KGNB 162355Z AUTO 00000KT 10SM CLR M11/M15 A3022 RMK AO2 T11081154 11100 21174
KGNB 162335Z AUTO 00000KT 10SM CLR M11/M15 A3022 RMK AO2 T11081153
KGNB 162315Z AUTO 00000KT 10SM CLR M11/M15 A3022 RMK AO2 T11061153